sensor_id;sensor_type;location;lat;lon;timestamp;P1;durP1;ratioP1;P2;durP2;ratioP2
52412;SDS011;38339;53.234;6.578;2022-10-16T00:01:20;16.33;;;3.33;;
52412;SDS011;38339;53.234;6.578;2022-10-16T00:03:48;10.85;;;2.85;;
52412;SDS011;38339;53.234;6.578;2022-10-16T00:06:15;8.60;;;2.97;;
52412;SDS011;38339;53.234;6.578;2022-10-16T00:08:42;8.30;;;2.83;;
52412;SDS011;38339;53.234;6.578;2022-10-16T00:13:48;8.23;;;3.00;;
52412;SDS011;38339;53.234;6.578;2022-10-16T00:16:15;7.97;;;2.97;;
52412;SDS011;38339;53.234;6.578;2022-10-16T00:18:42;8.18;;;2.70;;
52412;SDS011;38339;53.234;6.578;2022-10-16T00:21:18;10.40;;;3.00;;
52412;SDS011;38339;53.234;6.578;2022-10-16T00:23:46;6.78;;;2.75;;
52412;SDS011;38339;53.234;6.578;2022-10-16T00:26:16;8.15;;;2.75;;
52412;SDS011;38339;53.234;6.578;2022-10-16T00:28:42;11.63;;;3.22;;
52412;SDS011;38339;53.234;6.578;2022-10-16T00:31:11;8.30;;;2.95;;
52412;SDS011;38339;53.234;6.578;2022-10-16T00:33:38;9.88;;;3.00;;
52412;SDS011;38339;53.234;6.578;2022-10-16T00:36:05;6.38;;;2.40;;
52412;SDS011;38339;53.234;6.578;2022-10-16T00:38:32;7.05;;;2.78;;
52412;SDS011;38339;53.234;6.578;2022-10-16T00:40:57;9.68;;;2.90;;
52412;SDS011;38339;53.234;6.578;2022-10-16T00:43:34;5.15;;;2.17;;
52412;SDS011;38339;53.234;6.578;2022-10-16T00:48:52;6.25;;;2.83;;
52412;SDS011;38339;53.234;6.578;2022-10-16T00:51:23;6.40;;;3.25;;
52412;SDS011;38339;53.234;6.578;2022-10-16T00:53:54;6.15;;;2.80;;
52412;SDS011;38339;53.234;6.578;2022-10-16T00:56:21;6.07;;;2.67;;
52412;SDS011;38339;53.234;6.578;2022-10-16T00:58:47;8.40;;;2.80;;
52412;SDS011;38339;53.234;6.578;2022-10-16T01:01:13;8.68;;;2.72;;
52412;SDS011;38339;53.234;6.578;2022-10-16T01:03:39;10.20;;;2.58;;
52412;SDS011;38339;53.234;6.578;2022-10-16T01:09:01;5.15;;;2.42;;
52412;SDS011;38339;53.234;6.578;2022-10-16T01:14:43;8.90;;;2.53;;
52412;SDS011;38339;53.234;6.578;2022-10-16T01:19:54;6.05;;;2.40;;
52412;SDS011;38339;53.234;6.578;2022-10-16T01:23:22;11.75;;;2.63;;
52412;SDS011;38339;53.234;6.578;2022-10-16T01:25:37;5.05;;;2.28;;
52412;SDS011;38339;53.234;6.578;2022-10-16T01:28:05;7.45;;;2.50;;
52412;SDS011;38339;53.234;6.578;2022-10-16T01:30:34;8.20;;;2.80;;
52412;SDS011;38339;53.234;6.578;2022-10-16T01:33:23;7.15;;;2.60;;
52412;SDS011;38339;53.234;6.578;2022-10-16T01:35:54;7.30;;;2.17;;
52412;SDS011;38339;53.234;6.578;2022-10-16T01:38:29;6.10;;;2.80;;
52412;SDS011;38339;53.234;6.578;2022-10-16T01:41:06;6.63;;;2.42;;
52412;SDS011;38339;53.234;6.578;2022-10-16T01:43:46;6.13;;;2.53;;
52412;SDS011;38339;53.234;6.578;2022-10-16T01:46:16;6.82;;;2.17;;
52412;SDS011;38339;53.234;6.578;2022-10-16T01:48:43;6.75;;;2.47;;
52412;SDS011;38339;53.234;6.578;2022-10-16T01:51:09;5.70;;;2.50;;
52412;SDS011;38339;53.234;6.578;2022-10-16T01:53:39;7.90;;;2.70;;
52412;SDS011;38339;53.234;6.578;2022-10-16T01:56:08;7.65;;;2.30;;
52412;SDS011;38339;53.234;6.578;2022-10-16T01:58:41;7.20;;;2.78;;
52412;SDS011;38339;53.234;6.578;2022-10-16T02:01:14;5.97;;;2.33;;
52412;SDS011;38339;53.234;6.578;2022-10-16T02:03:43;6.97;;;2.63;;
52412;SDS011;38339;53.234;6.578;2022-10-16T02:06:10;7.93;;;2.45;;
52412;SDS011;38339;53.234;6.578;2022-10-16T02:08:36;5.85;;;2.33;;
52412;SDS011;38339;53.234;6.578;2022-10-16T02:11:04;7.32;;;2.92;;
52412;SDS011;38339;53.234;6.578;2022-10-16T02:13:33;5.78;;;2.47;;
52412;SDS011;38339;53.234;6.578;2022-10-16T02:16:10;6.53;;;2.60;;
52412;SDS011;38339;53.234;6.578;2022-10-16T02:18:37;5.43;;;2.45;;
52412;SDS011;38339;53.234;6.578;2022-10-16T02:23:55;5.55;;;2.60;;
52412;SDS011;38339;53.234;6.578;2022-10-16T02:26:28;4.28;;;2.20;;
52412;SDS011;38339;53.234;6.578;2022-10-16T02:29:04;6.75;;;2.08;;
52412;SDS011;38339;53.234;6.578;2022-10-16T02:31:35;7.13;;;2.53;;
52412;SDS011;38339;53.234;6.578;2022-10-16T02:34:06;4.40;;;2.30;;
52412;SDS011;38339;53.234;6.578;2022-10-16T02:36:33;5.38;;;2.25;;
52412;SDS011;38339;53.234;6.578;2022-10-16T02:39:01;6.85;;;2.60;;
52412;SDS011;38339;53.234;6.578;2022-10-16T02:41:28;6.53;;;2.63;;
52412;SDS011;38339;53.234;6.578;2022-10-16T02:43:55;5.18;;;2.50;;
52412;SDS011;38339;53.234;6.578;2022-10-16T02:46:21;6.60;;;2.60;;
52412;SDS011;38339;53.234;6.578;2022-10-16T02:48:47;9.00;;;2.95;;
52412;SDS011;38339;53.234;6.578;2022-10-16T02:51:12;5.78;;;2.50;;
52412;SDS011;38339;53.234;6.578;2022-10-16T02:53:38;7.90;;;2.50;;
52412;SDS011;38339;53.234;6.578;2022-10-16T02:56:04;6.63;;;2.58;;
52412;SDS011;38339;53.234;6.578;2022-10-16T02:58:29;4.47;;;2.35;;
52412;SDS011;38339;53.234;6.578;2022-10-16T03:00:55;7.43;;;2.55;;
52412;SDS011;38339;53.234;6.578;2022-10-16T03:03:21;3.92;;;2.03;;
52412;SDS011;38339;53.234;6.578;2022-10-16T03:05:47;4.25;;;2.13;;
52412;SDS011;38339;53.234;6.578;2022-10-16T03:08:12;8.35;;;2.42;;
52412;SDS011;38339;53.234;6.578;2022-10-16T03:10:38;3.90;;;2.08;;
52412;SDS011;38339;53.234;6.578;2022-10-16T03:13:04;7.32;;;2.03;;
52412;SDS011;38339;53.234;6.578;2022-10-16T03:15:30;3.50;;;1.90;;
52412;SDS011;38339;53.234;6.578;2022-10-16T03:17:59;9.60;;;2.60;;
52412;SDS011;38339;53.234;6.578;2022-10-16T03:20:26;4.72;;;2.03;;
52412;SDS011;38339;53.234;6.578;2022-10-16T03:22:52;5.43;;;2.17;;
52412;SDS011;38339;53.234;6.578;2022-10-16T03:25:17;5.53;;;2.10;;
52412;SDS011;38339;53.234;6.578;2022-10-16T03:27:43;15.13;;;2.50;;
52412;SDS011;38339;53.234;6.578;2022-10-16T03:30:09;5.90;;;2.13;;
52412;SDS011;38339;53.234;6.578;2022-10-16T03:32:35;6.28;;;2.25;;
52412;SDS011;38339;53.234;6.578;2022-10-16T03:35:01;4.45;;;2.28;;
52412;SDS011;38339;53.234;6.578;2022-10-16T03:37:27;4.03;;;2.05;;
52412;SDS011;38339;53.234;6.578;2022-10-16T03:39:52;5.82;;;1.90;;
52412;SDS011;38339;53.234;6.578;2022-10-16T03:42:18;4.55;;;2.28;;
52412;SDS011;38339;53.234;6.578;2022-10-16T03:44:43;6.20;;;2.50;;
52412;SDS011;38339;53.234;6.578;2022-10-16T03:47:10;4.70;;;2.53;;
52412;SDS011;38339;53.234;6.578;2022-10-16T03:49:35;4.07;;;2.20;;
52412;SDS011;38339;53.234;6.578;2022-10-16T03:52:01;6.38;;;2.28;;
52412;SDS011;38339;53.234;6.578;2022-10-16T03:54:27;5.97;;;2.40;;
52412;SDS011;38339;53.234;6.578;2022-10-16T03:56:52;3.78;;;2.25;;
52412;SDS011;38339;53.234;6.578;2022-10-16T03:59:18;6.93;;;2.20;;
52412;SDS011;38339;53.234;6.578;2022-10-16T04:01:44;5.72;;;2.30;;
52412;SDS011;38339;53.234;6.578;2022-10-16T04:04:09;4.20;;;2.10;;
52412;SDS011;38339;53.234;6.578;2022-10-16T04:06:35;6.65;;;2.28;;
52412;SDS011;38339;53.234;6.578;2022-10-16T04:09:01;5.15;;;2.30;;
52412;SDS011;38339;53.234;6.578;2022-10-16T04:11:27;6.13;;;2.53;;
52412;SDS011;38339;53.234;6.578;2022-10-16T04:13:52;7.10;;;2.33;;
52412;SDS011;38339;53.234;6.578;2022-10-16T04:16:18;6.45;;;2.35;;
52412;SDS011;38339;53.234;6.578;2022-10-16T04:18:44;5.72;;;2.47;;
52412;SDS011;38339;53.234;6.578;2022-10-16T04:21:09;4.63;;;2.30;;
52412;SDS011;38339;53.234;6.578;2022-10-16T04:23:35;3.78;;;2.30;;
52412;SDS011;38339;53.234;6.578;2022-10-16T04:26:01;6.13;;;2.13;;
52412;SDS011;38339;53.234;6.578;2022-10-16T04:28:26;4.75;;;2.53;;
52412;SDS011;38339;53.234;6.578;2022-10-16T04:30:52;7.90;;;2.63;;
52412;SDS011;38339;53.234;6.578;2022-10-16T04:33:18;6.35;;;2.33;;
52412;SDS011;38339;53.234;6.578;2022-10-16T04:35:44;7.57;;;2.70;;
52412;SDS011;38339;53.234;6.578;2022-10-16T04:38:10;5.93;;;2.33;;
52412;SDS011;38339;53.234;6.578;2022-10-16T04:40:35;8.35;;;2.70;;
52412;SDS011;38339;53.234;6.578;2022-10-16T04:43:04;4.75;;;2.30;;
52412;SDS011;38339;53.234;6.578;2022-10-16T04:45:30;5.15;;;2.42;;
52412;SDS011;38339;53.234;6.578;2022-10-16T04:47:57;5.20;;;2.40;;
52412;SDS011;38339;53.234;6.578;2022-10-16T04:50:23;6.57;;;2.30;;
52412;SDS011;38339;53.234;6.578;2022-10-16T04:52:49;5.63;;;2.58;;
52412;SDS011;38339;53.234;6.578;2022-10-16T04:55:14;6.10;;;2.50;;
52412;SDS011;38339;53.234;6.578;2022-10-16T04:57:40;4.88;;;2.70;;
52412;SDS011;38339;53.234;6.578;2022-10-16T05:00:06;5.88;;;2.33;;
52412;SDS011;38339;53.234;6.578;2022-10-16T05:02:33;10.77;;;2.92;;
52412;SDS011;38339;53.234;6.578;2022-10-16T05:04:58;11.82;;;2.65;;
52412;SDS011;38339;53.234;6.578;2022-10-16T05:07:24;7.22;;;2.53;;
52412;SDS011;38339;53.234;6.578;2022-10-16T05:09:50;8.10;;;2.83;;
52412;SDS011;38339;53.234;6.578;2022-10-16T05:12:16;6.18;;;2.28;;
52412;SDS011;38339;53.234;6.578;2022-10-16T05:14:42;4.00;;;2.33;;
52412;SDS011;38339;53.234;6.578;2022-10-16T05:17:08;6.30;;;2.50;;
52412;SDS011;38339;53.234;6.578;2022-10-16T05:19:33;6.20;;;2.55;;
52412;SDS011;38339;53.234;6.578;2022-10-16T05:21:59;5.78;;;2.78;;
52412;SDS011;38339;53.234;6.578;2022-10-16T05:24:25;8.60;;;2.60;;
52412;SDS011;38339;53.234;6.578;2022-10-16T05:26:51;7.45;;;2.58;;
52412;SDS011;38339;53.234;6.578;2022-10-16T05:29:17;6.60;;;3.05;;
52412;SDS011;38339;53.234;6.578;2022-10-16T05:31:43;6.25;;;2.60;;
52412;SDS011;38339;53.234;6.578;2022-10-16T05:34:08;8.52;;;2.60;;
52412;SDS011;38339;53.234;6.578;2022-10-16T05:36:34;4.45;;;2.53;;
52412;SDS011;38339;53.234;6.578;2022-10-16T05:39:00;6.28;;;2.60;;
52412;SDS011;38339;53.234;6.578;2022-10-16T05:41:26;6.03;;;2.70;;
52412;SDS011;38339;53.234;6.578;2022-10-16T05:43:52;6.38;;;3.30;;
52412;SDS011;38339;53.234;6.578;2022-10-16T05:46:18;6.70;;;2.58;;
52412;SDS011;38339;53.234;6.578;2022-10-16T05:48:43;7.10;;;3.05;;
52412;SDS011;38339;53.234;6.578;2022-10-16T05:51:10;8.73;;;2.90;;
52412;SDS011;38339;53.234;6.578;2022-10-16T05:53:37;7.60;;;3.22;;
52412;SDS011;38339;53.234;6.578;2022-10-16T05:56:04;5.07;;;2.80;;
52412;SDS011;38339;53.234;6.578;2022-10-16T05:58:32;6.60;;;2.78;;
52412;SDS011;38339;53.234;6.578;2022-10-16T06:01:01;7.10;;;3.45;;
52412;SDS011;38339;53.234;6.578;2022-10-16T06:03:28;6.85;;;3.42;;
52412;SDS011;38339;53.234;6.578;2022-10-16T06:05:54;6.47;;;2.65;;
52412;SDS011;38339;53.234;6.578;2022-10-16T06:08:20;8.73;;;2.97;;
52412;SDS011;38339;53.234;6.578;2022-10-16T06:10:47;5.30;;;3.00;;
52412;SDS011;38339;53.234;6.578;2022-10-16T06:13:13;5.78;;;3.30;;
52412;SDS011;38339;53.234;6.578;2022-10-16T06:15:40;6.38;;;2.90;;
52412;SDS011;38339;53.234;6.578;2022-10-16T06:18:07;7.10;;;3.28;;
52412;SDS011;38339;53.234;6.578;2022-10-16T06:20:36;8.98;;;3.47;;
52412;SDS011;38339;53.234;6.578;2022-10-16T06:23:02;5.93;;;3.50;;
52412;SDS011;38339;53.234;6.578;2022-10-16T06:25:29;5.38;;;3.13;;
52412;SDS011;38339;53.234;6.578;2022-10-16T06:27:56;6.45;;;3.58;;
52412;SDS011;38339;53.234;6.578;2022-10-16T06:30:22;7.38;;;3.60;;
52412;SDS011;38339;53.234;6.578;2022-10-16T06:32:47;7.07;;;3.67;;
52412;SDS011;38339;53.234;6.578;2022-10-16T06:35:13;8.75;;;3.25;;
52412;SDS011;38339;53.234;6.578;2022-10-16T06:37:39;6.75;;;3.10;;
52412;SDS011;38339;53.234;6.578;2022-10-16T06:40:04;7.50;;;3.30;;
52412;SDS011;38339;53.234;6.578;2022-10-16T06:42:30;6.53;;;3.53;;
52412;SDS011;38339;53.234;6.578;2022-10-16T06:44:56;7.88;;;3.25;;
52412;SDS011;38339;53.234;6.578;2022-10-16T06:47:22;7.20;;;3.50;;
52412;SDS011;38339;53.234;6.578;2022-10-16T06:49:47;9.45;;;3.50;;
52412;SDS011;38339;53.234;6.578;2022-10-16T06:52:13;7.93;;;3.72;;
52412;SDS011;38339;53.234;6.578;2022-10-16T06:54:39;6.38;;;3.53;;
52412;SDS011;38339;53.234;6.578;2022-10-16T06:57:05;5.43;;;3.28;;
52412;SDS011;38339;53.234;6.578;2022-10-16T06:59:30;6.85;;;3.90;;
52412;SDS011;38339;53.234;6.578;2022-10-16T07:01:56;9.60;;;3.00;;
52412;SDS011;38339;53.234;6.578;2022-10-16T07:04:22;5.95;;;3.03;;
52412;SDS011;38339;53.234;6.578;2022-10-16T07:06:47;7.50;;;2.78;;
52412;SDS011;38339;53.234;6.578;2022-10-16T07:09:13;8.13;;;3.40;;
52412;SDS011;38339;53.234;6.578;2022-10-16T07:11:39;6.70;;;3.65;;
52412;SDS011;38339;53.234;6.578;2022-10-16T07:14:12;8.77;;;3.08;;
52412;SDS011;38339;53.234;6.578;2022-10-16T07:16:43;9.50;;;3.33;;
52412;SDS011;38339;53.234;6.578;2022-10-16T07:19:09;10.02;;;3.20;;
52412;SDS011;38339;53.234;6.578;2022-10-16T07:21:37;10.70;;;4.07;;
52412;SDS011;38339;53.234;6.578;2022-10-16T07:24:21;8.15;;;3.38;;
52412;SDS011;38339;53.234;6.578;2022-10-16T07:26:48;8.63;;;3.60;;
52412;SDS011;38339;53.234;6.578;2022-10-16T07:29:14;8.75;;;5.18;;
52412;SDS011;38339;53.234;6.578;2022-10-16T07:31:42;6.78;;;2.80;;
52412;SDS011;38339;53.234;6.578;2022-10-16T07:34:08;5.50;;;3.03;;
52412;SDS011;38339;53.234;6.578;2022-10-16T07:36:35;7.97;;;3.42;;
52412;SDS011;38339;53.234;6.578;2022-10-16T07:39:01;5.13;;;2.80;;
52412;SDS011;38339;53.234;6.578;2022-10-16T07:41:28;7.65;;;3.00;;
52412;SDS011;38339;53.234;6.578;2022-10-16T07:43:57;5.35;;;2.97;;
52412;SDS011;38339;53.234;6.578;2022-10-16T07:46:25;9.38;;;3.20;;
52412;SDS011;38339;53.234;6.578;2022-10-16T07:48:52;5.25;;;2.80;;
52412;SDS011;38339;53.234;6.578;2022-10-16T07:51:20;8.80;;;3.30;;
52412;SDS011;38339;53.234;6.578;2022-10-16T07:53:49;6.47;;;2.90;;
52412;SDS011;38339;53.234;6.578;2022-10-16T07:56:16;6.07;;;2.95;;
52412;SDS011;38339;53.234;6.578;2022-10-16T07:58:43;4.93;;;2.95;;
52412;SDS011;38339;53.234;6.578;2022-10-16T08:01:10;5.97;;;3.33;;
52412;SDS011;38339;53.234;6.578;2022-10-16T08:03:38;8.70;;;3.10;;
52412;SDS011;38339;53.234;6.578;2022-10-16T08:06:03;5.85;;;3.00;;
52412;SDS011;38339;53.234;6.578;2022-10-16T08:08:30;6.60;;;3.38;;
52412;SDS011;38339;53.234;6.578;2022-10-16T08:10:56;9.57;;;3.78;;
52412;SDS011;38339;53.234;6.578;2022-10-16T08:13:21;7.35;;;3.63;;
52412;SDS011;38339;53.234;6.578;2022-10-16T08:15:47;8.85;;;3.65;;
52412;SDS011;38339;53.234;6.578;2022-10-16T08:18:13;6.47;;;3.50;;
52412;SDS011;38339;53.234;6.578;2022-10-16T08:20:40;11.48;;;6.80;;
52412;SDS011;38339;53.234;6.578;2022-10-16T08:23:07;14.27;;;3.63;;
52412;SDS011;38339;53.234;6.578;2022-10-16T08:25:35;12.10;;;3.67;;
52412;SDS011;38339;53.234;6.578;2022-10-16T08:28:05;5.95;;;3.47;;
52412;SDS011;38339;53.234;6.578;2022-10-16T08:30:32;8.13;;;2.95;;
52412;SDS011;38339;53.234;6.578;2022-10-16T08:32:58;6.10;;;3.22;;
52412;SDS011;38339;53.234;6.578;2022-10-16T08:35:24;6.72;;;2.85;;
52412;SDS011;38339;53.234;6.578;2022-10-16T08:37:50;7.75;;;2.90;;
52412;SDS011;38339;53.234;6.578;2022-10-16T08:40:17;6.28;;;2.97;;
52412;SDS011;38339;53.234;6.578;2022-10-16T08:48:41;8.25;;;2.67;;
52412;SDS011;38339;53.234;6.578;2022-10-16T08:51:23;6.43;;;2.63;;
52412;SDS011;38339;53.234;6.578;2022-10-16T08:54:04;8.20;;;2.67;;
52412;SDS011;38339;53.234;6.578;2022-10-16T08:56:36;8.02;;;2.70;;
52412;SDS011;38339;53.234;6.578;2022-10-16T08:59:02;7.57;;;2.65;;
52412;SDS011;38339;53.234;6.578;2022-10-16T09:01:41;7.50;;;2.60;;
52412;SDS011;38339;53.234;6.578;2022-10-16T09:06:58;5.75;;;2.30;;
52412;SDS011;38339;53.234;6.578;2022-10-16T09:18:15;8.82;;;2.53;;
52412;SDS011;38339;53.234;6.578;2022-10-16T09:23:43;12.18;;;3.95;;
52412;SDS011;38339;53.234;6.578;2022-10-16T09:26:09;8.27;;;2.70;;
52412;SDS011;38339;53.234;6.578;2022-10-16T09:28:37;8.45;;;2.60;;
52412;SDS011;38339;53.234;6.578;2022-10-16T09:31:03;9.93;;;3.00;;
52412;SDS011;38339;53.234;6.578;2022-10-16T09:33:33;7.53;;;2.90;;
52412;SDS011;38339;53.234;6.578;2022-10-16T09:36:02;12.63;;;5.35;;
52412;SDS011;38339;53.234;6.578;2022-10-16T09:38:30;8.90;;;2.55;;
52412;SDS011;38339;53.234;6.578;2022-10-16T09:40:58;9.55;;;2.70;;
52412;SDS011;38339;53.234;6.578;2022-10-16T09:48:59;8.43;;;2.50;;
52412;SDS011;38339;53.234;6.578;2022-10-16T09:51:21;9.55;;;2.85;;
52412;SDS011;38339;53.234;6.578;2022-10-16T09:53:53;8.80;;;2.60;;
52412;SDS011;38339;53.234;6.578;2022-10-16T09:56:31;20.05;;;3.15;;
52412;SDS011;38339;53.234;6.578;2022-10-16T09:59:18;17.05;;;3.30;;
52412;SDS011;38339;53.234;6.578;2022-10-16T10:01:49;10.35;;;2.47;;
52412;SDS011;38339;53.234;6.578;2022-10-16T10:04:16;10.82;;;2.78;;
52412;SDS011;38339;53.234;6.578;2022-10-16T10:06:50;14.48;;;3.30;;
52412;SDS011;38339;53.234;6.578;2022-10-16T10:09:27;10.07;;;2.95;;
52412;SDS011;38339;53.234;6.578;2022-10-16T10:11:59;12.88;;;2.78;;
52412;SDS011;38339;53.234;6.578;2022-10-16T10:14:36;10.48;;;2.80;;
52412;SDS011;38339;53.234;6.578;2022-10-16T10:17:12;11.07;;;2.65;;
52412;SDS011;38339;53.234;6.578;2022-10-16T10:19:52;9.10;;;3.10;;
52412;SDS011;38339;53.234;6.578;2022-10-16T10:22:30;11.60;;;3.25;;
52412;SDS011;38339;53.234;6.578;2022-10-16T10:30:24;19.85;;;3.20;;
52412;SDS011;38339;53.234;6.578;2022-10-16T10:38:32;12.60;;;3.05;;
52412;SDS011;38339;53.234;6.578;2022-10-16T10:41:27;12.52;;;2.97;;
52412;SDS011;38339;53.234;6.578;2022-10-16T11:04:50;13.77;;;3.70;;
52412;SDS011;38339;53.234;6.578;2022-10-16T11:07:34;13.55;;;3.25;;
52412;SDS011;38339;53.234;6.578;2022-10-16T11:12:46;19.02;;;3.15;;
52412;SDS011;38339;53.234;6.578;2022-10-16T11:15:22;14.00;;;2.95;;
52412;SDS011;38339;53.234;6.578;2022-10-16T11:18:08;17.00;;;4.03;;
52412;SDS011;38339;53.234;6.578;2022-10-16T11:20:42;16.23;;;2.90;;
52412;SDS011;38339;53.234;6.578;2022-10-16T11:26:04;13.63;;;2.50;;
52412;SDS011;38339;53.234;6.578;2022-10-16T11:28:40;15.40;;;3.38;;
52412;SDS011;38339;53.234;6.578;2022-10-16T11:34:02;12.52;;;2.78;;
52412;SDS011;38339;53.234;6.578;2022-10-16T11:39:27;13.25;;;2.75;;
52412;SDS011;38339;53.234;6.578;2022-10-16T11:42:03;11.45;;;3.25;;
52412;SDS011;38339;53.234;6.578;2022-10-16T11:44:48;12.68;;;3.42;;
52412;SDS011;38339;53.234;6.578;2022-10-16T11:47:43;12.77;;;2.90;;
52412;SDS011;38339;53.234;6.578;2022-10-16T11:50:52;11.80;;;2.97;;
52412;SDS011;38339;53.234;6.578;2022-10-16T11:56:00;10.25;;;2.70;;
52412;SDS011;38339;53.234;6.578;2022-10-16T11:58:35;14.63;;;3.85;;
52412;SDS011;38339;53.234;6.578;2022-10-16T12:09:15;16.40;;;2.58;;
52412;SDS011;38339;53.234;6.578;2022-10-16T12:11:49;14.10;;;3.00;;
52412;SDS011;38339;53.234;6.578;2022-10-16T12:16:54;9.95;;;3.22;;
52412;SDS011;38339;53.234;6.578;2022-10-16T12:19:22;12.40;;;2.63;;
52412;SDS011;38339;53.234;6.578;2022-10-16T12:21:49;14.10;;;3.20;;
52412;SDS011;38339;53.234;6.578;2022-10-16T12:24:36;20.70;;;3.17;;
52412;SDS011;38339;53.234;6.578;2022-10-16T12:27:23;14.93;;;2.92;;
52412;SDS011;38339;53.234;6.578;2022-10-16T12:34:54;10.00;;;2.80;;
52412;SDS011;38339;53.234;6.578;2022-10-16T12:37:31;14.23;;;3.05;;
52412;SDS011;38339;53.234;6.578;2022-10-16T12:42:52;11.73;;;2.65;;
52412;SDS011;38339;53.234;6.578;2022-10-16T12:45:27;14.82;;;3.30;;
52412;SDS011;38339;53.234;6.578;2022-10-16T12:47:56;15.77;;;3.72;;
52412;SDS011;38339;53.234;6.578;2022-10-16T12:52:53;14.07;;;3.30;;
52412;SDS011;38339;53.234;6.578;2022-10-16T12:55:21;13.70;;;3.00;;
52412;SDS011;38339;53.234;6.578;2022-10-16T13:01:02;8.00;;;2.63;;
52412;SDS011;38339;53.234;6.578;2022-10-16T13:03:49;10.65;;;2.60;;
52412;SDS011;38339;53.234;6.578;2022-10-16T13:06:53;10.90;;;2.92;;
52412;SDS011;38339;53.234;6.578;2022-10-16T13:20:34;10.77;;;2.60;;
52412;SDS011;38339;53.234;6.578;2022-10-16T13:23:13;10.63;;;2.60;;
52412;SDS011;38339;53.234;6.578;2022-10-16T13:28:13;9.02;;;2.85;;
52412;SDS011;38339;53.234;6.578;2022-10-16T13:30:52;12.00;;;2.72;;
52412;SDS011;38339;53.234;6.578;2022-10-16T13:33:20;16.92;;;3.20;;
52412;SDS011;38339;53.234;6.578;2022-10-16T13:35:59;11.68;;;3.42;;
52412;SDS011;38339;53.234;6.578;2022-10-16T13:38:27;11.05;;;2.63;;
52412;SDS011;38339;53.234;6.578;2022-10-16T13:40:58;13.32;;;2.92;;
52412;SDS011;38339;53.234;6.578;2022-10-16T13:43:32;12.02;;;2.53;;
52412;SDS011;38339;53.234;6.578;2022-10-16T13:46:05;14.65;;;2.83;;
52412;SDS011;38339;53.234;6.578;2022-10-16T13:48:36;12.48;;;2.80;;
52412;SDS011;38339;53.234;6.578;2022-10-16T13:53:36;11.48;;;2.97;;
52412;SDS011;38339;53.234;6.578;2022-10-16T13:56:03;12.48;;;2.88;;
52412;SDS011;38339;53.234;6.578;2022-10-16T13:58:30;15.10;;;3.00;;
52412;SDS011;38339;53.234;6.578;2022-10-16T14:01:00;9.52;;;2.22;;
52412;SDS011;38339;53.234;6.578;2022-10-16T14:03:28;10.05;;;2.60;;
52412;SDS011;38339;53.234;6.578;2022-10-16T14:05:56;9.55;;;2.55;;
52412;SDS011;38339;53.234;6.578;2022-10-16T14:08:25;9.43;;;2.42;;
52412;SDS011;38339;53.234;6.578;2022-10-16T14:10:54;10.70;;;2.63;;
52412;SDS011;38339;53.234;6.578;2022-10-16T14:13:28;11.45;;;2.47;;
52412;SDS011;38339;53.234;6.578;2022-10-16T14:15:54;10.63;;;2.60;;
52412;SDS011;38339;53.234;6.578;2022-10-16T14:18:24;17.30;;;3.22;;
52412;SDS011;38339;53.234;6.578;2022-10-16T14:20:51;12.98;;;2.80;;
52412;SDS011;38339;53.234;6.578;2022-10-16T14:23:31;13.30;;;3.05;;
52412;SDS011;38339;53.234;6.578;2022-10-16T14:26:40;17.00;;;3.28;;
52412;SDS011;38339;53.234;6.578;2022-10-16T14:31:39;14.23;;;4.47;;
52412;SDS011;38339;53.234;6.578;2022-10-16T14:34:22;11.65;;;3.15;;
52412;SDS011;38339;53.234;6.578;2022-10-16T14:36:55;12.32;;;2.85;;
52412;SDS011;38339;53.234;6.578;2022-10-16T14:39:22;12.82;;;2.75;;
52412;SDS011;38339;53.234;6.578;2022-10-16T14:41:50;15.20;;;3.00;;
52412;SDS011;38339;53.234;6.578;2022-10-16T14:44:17;8.95;;;2.67;;
52412;SDS011;38339;53.234;6.578;2022-10-16T14:46:44;13.07;;;2.75;;
52412;SDS011;38339;53.234;6.578;2022-10-16T14:51:40;13.82;;;3.22;;
52412;SDS011;38339;53.234;6.578;2022-10-16T14:54:10;11.52;;;3.15;;
52412;SDS011;38339;53.234;6.578;2022-10-16T14:56:56;22.50;;;5.88;;
52412;SDS011;38339;53.234;6.578;2022-10-16T14:59:39;11.93;;;3.33;;
52412;SDS011;38339;53.234;6.578;2022-10-16T15:04:56;16.08;;;3.80;;
52412;SDS011;38339;53.234;6.578;2022-10-16T15:07:27;19.58;;;3.90;;
52412;SDS011;38339;53.234;6.578;2022-10-16T15:09:58;15.02;;;2.97;;
52412;SDS011;38339;53.234;6.578;2022-10-16T15:12:25;15.10;;;3.75;;
52412;SDS011;38339;53.234;6.578;2022-10-16T15:14:50;12.65;;;2.60;;
52412;SDS011;38339;53.234;6.578;2022-10-16T15:17:16;15.63;;;3.35;;
52412;SDS011;38339;53.234;6.578;2022-10-16T15:19:42;17.95;;;3.70;;
52412;SDS011;38339;53.234;6.578;2022-10-16T15:22:10;15.25;;;3.22;;
52412;SDS011;38339;53.234;6.578;2022-10-16T15:24:36;13.38;;;3.03;;
52412;SDS011;38339;53.234;6.578;2022-10-16T15:27:02;15.35;;;3.20;;
52412;SDS011;38339;53.234;6.578;2022-10-16T15:29:28;16.60;;;3.10;;
52412;SDS011;38339;53.234;6.578;2022-10-16T15:31:53;15.35;;;3.25;;
52412;SDS011;38339;53.234;6.578;2022-10-16T15:34:19;14.35;;;3.20;;
52412;SDS011;38339;53.234;6.578;2022-10-16T15:36:44;13.65;;;3.45;;
52412;SDS011;38339;53.234;6.578;2022-10-16T15:39:18;14.27;;;3.50;;
52412;SDS011;38339;53.234;6.578;2022-10-16T15:41:45;21.98;;;3.78;;
52412;SDS011;38339;53.234;6.578;2022-10-16T15:44:19;11.45;;;3.03;;
52412;SDS011;38339;53.234;6.578;2022-10-16T15:46:48;16.30;;;3.30;;
52412;SDS011;38339;53.234;6.578;2022-10-16T15:49:14;12.43;;;3.42;;
52412;SDS011;38339;53.234;6.578;2022-10-16T15:51:40;10.88;;;3.10;;
52412;SDS011;38339;53.234;6.578;2022-10-16T15:54:07;18.65;;;3.53;;
52412;SDS011;38339;53.234;6.578;2022-10-16T15:56:34;15.95;;;3.92;;
52412;SDS011;38339;53.234;6.578;2022-10-16T15:59:01;13.50;;;3.88;;
52412;SDS011;38339;53.234;6.578;2022-10-16T16:01:28;14.20;;;4.15;;
52412;SDS011;38339;53.234;6.578;2022-10-16T16:04:00;18.48;;;4.00;;
52412;SDS011;38339;53.234;6.578;2022-10-16T16:06:26;12.30;;;3.60;;
52412;SDS011;38339;53.234;6.578;2022-10-16T16:08:52;13.57;;;3.22;;
52412;SDS011;38339;53.234;6.578;2022-10-16T16:11:19;13.98;;;3.25;;
52412;SDS011;38339;53.234;6.578;2022-10-16T16:13:45;11.55;;;3.30;;
52412;SDS011;38339;53.234;6.578;2022-10-16T16:16:12;12.95;;;3.50;;
52412;SDS011;38339;53.234;6.578;2022-10-16T16:18:40;14.68;;;3.83;;
52412;SDS011;38339;53.234;6.578;2022-10-16T16:21:07;12.35;;;4.65;;
52412;SDS011;38339;53.234;6.578;2022-10-16T16:23:34;21.10;;;7.05;;
52412;SDS011;38339;53.234;6.578;2022-10-16T16:26:07;18.45;;;4.43;;
52412;SDS011;38339;53.234;6.578;2022-10-16T16:28:36;14.50;;;4.10;;
52412;SDS011;38339;53.234;6.578;2022-10-16T16:31:02;15.80;;;4.45;;
52412;SDS011;38339;53.234;6.578;2022-10-16T16:33:28;14.68;;;4.32;;
52412;SDS011;38339;53.234;6.578;2022-10-16T16:35:59;15.10;;;4.93;;
52412;SDS011;38339;53.234;6.578;2022-10-16T16:38:26;15.70;;;5.88;;
52412;SDS011;38339;53.234;6.578;2022-10-16T16:40:53;18.20;;;6.53;;
52412;SDS011;38339;53.234;6.578;2022-10-16T16:43:19;15.25;;;6.13;;
52412;SDS011;38339;53.234;6.578;2022-10-16T16:45:48;16.85;;;5.10;;
52412;SDS011;38339;53.234;6.578;2022-10-16T16:48:14;16.73;;;4.40;;
52412;SDS011;38339;53.234;6.578;2022-10-16T16:50:39;16.17;;;4.80;;
52412;SDS011;38339;53.234;6.578;2022-10-16T16:53:05;18.73;;;5.43;;
52412;SDS011;38339;53.234;6.578;2022-10-16T16:55:32;23.27;;;5.90;;
52412;SDS011;38339;53.234;6.578;2022-10-16T16:57:58;14.52;;;5.65;;
52412;SDS011;38339;53.234;6.578;2022-10-16T17:00:24;12.32;;;5.15;;
52412;SDS011;38339;53.234;6.578;2022-10-16T17:02:50;19.77;;;6.38;;
52412;SDS011;38339;53.234;6.578;2022-10-16T17:05:16;15.20;;;5.55;;
52412;SDS011;38339;53.234;6.578;2022-10-16T17:07:43;14.77;;;4.72;;
52412;SDS011;38339;53.234;6.578;2022-10-16T17:10:13;16.98;;;5.00;;
52412;SDS011;38339;53.234;6.578;2022-10-16T17:12:38;14.63;;;4.70;;